Terminal Aerodrome Forecast
Issued by NWS

Home | Current Version | Previous Version | Text Only | Print | Product List | Glossary Off
Versions: 1 2 3 4 5 6 7 8 9 10 11 12 13 14 15 16 17 18 19 20 21 22 23

000
FTUS43 KGRB 152300 RRA
TAFCWA
TAF
KCWA 152340Z 1600/1624 12004KT 1SM -RA BR OVC003
     FM160200 09003KT 2SM -RA BR OVC009
     FM160700 35009KT 2SM -RASN BR OVC009
     FM161800 33012KT 3SM -SN BR OVC010
     FM162000 32014KT 6SM BR OVC018 PROB30 1620/1622 5SM -SN BR
      OVC014
      AMD LTD TO CLD VIS AND WIND 1603/1611=

USA.gov is the U.S. government's official web portal to all federal, state and local government web resources and services.